Candala Airport


Codes: HCMC/CXN
Name: Candala Airport
City: Candala
Country: Somalia
Elevation: 9 ft.

Photos at Candala Airport


   Photos courtesy of SpottingLog. You can add your own sightings and photos by signing up for a free trial today.



No photos found.

Weather at Candala Airport


Time (UTC)DescriptionTempratureWindCloud coverageVisibilityPressureHumidity
15-Apr-2024 18:00Scattered Clouds31°C11 mph, SE26%10000m1009hPa62%
15-Apr-2024 21:00Few Clouds30°C7 mph, SE23%10000m1009hPa63%
16-Apr-2024 00:00Scattered Clouds30°C11 mph, SE41%10000m1008hPa66%
16-Apr-2024 03:00Scattered Clouds29°C11 mph, SE25%10000m1008hPa66%
16-Apr-2024 06:00Scattered Clouds34°C7 mph, E31%10000m1009hPa46%
16-Apr-2024 09:00Broken Clouds33°C13 mph, NW83%10000m1008hPa55%
16-Apr-2024 12:00Overcast Clouds32°C7 mph, NE89%10000m1007hPa58%
16-Apr-2024 15:00Broken Clouds30°C4 mph, NE72%10000m1008hPa67%
16-Apr-2024 18:00Scattered Clouds30°C11 mph, SE45%10000m1010hPa63%
16-Apr-2024 21:00Clear Sky30°C9 mph, SE2%10000m1008hPa63%
17-Apr-2024 00:00Few Clouds30°C11 mph, SE13%10000m1006hPa62%
17-Apr-2024 03:00Broken Clouds30°C11 mph, SE62%10000m1008hPa60%
17-Apr-2024 06:00Broken Clouds33°C4 mph, NW69%10000m1010hPa52%
17-Apr-2024 09:00Overcast Clouds32°C9 mph, NW99%10000m1008hPa58%
17-Apr-2024 12:00Broken Clouds32°C7 mph, NE81%10000m1007hPa62%
17-Apr-2024 15:00Clear Sky30°C4 mph, NE10%10000m1008hPa71%
17-Apr-2024 18:00Few Clouds31°C9 mph, E24%10000m1010hPa64%
17-Apr-2024 21:00Clear Sky31°C13 mph, SE5%10000m1009hPa63%
18-Apr-2024 00:00Clear Sky30°C13 mph, SE6%10000m1008hPa65%
18-Apr-2024 03:00Clear Sky30°C11 mph, SE6%10000m1009hPa67%
18-Apr-2024 06:00Few Clouds34°C7 mph, E12%10000m1010hPa51%
18-Apr-2024 09:00Overcast Clouds33°C13 mph, N95%10000m1008hPa57%
18-Apr-2024 12:00Light Rain32°C4 mph, NE96%10000m1007hPa63%
18-Apr-2024 15:00Light Rain31°C9 mph, SE99%10000m1008hPa61%
18-Apr-2024 18:00Overcast Clouds31°C11 mph, SE89%10000m1009hPa61%
18-Apr-2024 21:00Scattered Clouds30°C11 mph, SE33%10000m1008hPa66%
19-Apr-2024 00:00Broken Clouds30°C11 mph, SE56%10000m1007hPa67%
19-Apr-2024 03:00Few Clouds30°C11 mph, SE12%10000m1008hPa65%
19-Apr-2024 06:00Few Clouds34°C7 mph, E22%10000m1009hPa47%
19-Apr-2024 09:00Broken Clouds33°C11 mph, N52%10000m1007hPa58%
19-Apr-2024 12:00Light Rain32°C4 mph, NE67%10000m1006hPa62%
19-Apr-2024 15:00Light Rain31°C2 mph, SE77%10000m1007hPa66%
19-Apr-2024 18:00Light Rain32°C11 mph, SE88%10000m1007hPa60%
19-Apr-2024 21:00Light Rain31°C9 mph, SE100%10000m1006hPa63%
20-Apr-2024 00:00Light Rain30°C9 mph, SE99%10000m1006hPa65%
20-Apr-2024 03:00Light Rain30°C11 mph, SE87%10000m1007hPa63%
20-Apr-2024 06:00Light Rain34°C9 mph, SE91%10000m1008hPa48%
20-Apr-2024 09:00Light Rain34°C4 mph, NW100%10000m1007hPa51%
20-Apr-2024 12:00Overcast Clouds32°C4 mph, N100%10000m1006hPa60%
20-Apr-2024 15:00Overcast Clouds30°C4 mph, E100%10000m1008hPa68%